createdAt,value
2022-08-26T00:01:57.881Z,6.68
2022-08-26T00:04:26.854Z,6.97
2022-08-26T00:06:56.144Z,7.18
2022-08-26T00:09:28.672Z,5.10
2022-08-26T00:11:58.928Z,6.05
2022-08-26T00:14:40.804Z,6.85
2022-08-26T00:17:13.308Z,5.43
2022-08-26T00:19:41.857Z,6.63
2022-08-26T00:22:10.538Z,5.55
2022-08-26T00:24:38.837Z,7.80
2022-08-26T00:27:06.821Z,6.45
2022-08-26T00:29:37.693Z,6.70
2022-08-26T00:32:12.775Z,6.13
2022-08-26T00:34:41.804Z,7.32
2022-08-26T00:37:16.259Z,6.82
2022-08-26T00:39:46.648Z,7.53
2022-08-26T00:42:14.322Z,6.35
2022-08-26T00:44:43.306Z,6.80
2022-08-26T00:47:27.505Z,5.85
2022-08-26T00:50:01.630Z,7.05
2022-08-26T00:52:31.486Z,4.85
2022-08-26T00:55:16.318Z,5.95
2022-08-26T00:57:52.505Z,7.32
2022-08-26T01:00:28.406Z,7.03
2022-08-26T01:03:00.189Z,5.88
2022-08-26T01:05:29.093Z,5.18
2022-08-26T01:07:58.489Z,6.50
2022-08-26T01:10:30.259Z,5.00
2022-08-26T01:13:10.346Z,3.90
2022-08-26T01:15:48.152Z,5.18
2022-08-26T01:18:26.565Z,6.18
2022-08-26T01:21:14.221Z,5.95
2022-08-26T01:23:51.115Z,5.18
2022-08-26T01:26:35.993Z,5.63
2022-08-26T01:29:07.573Z,4.95
2022-08-26T01:31:53.073Z,5.00
2022-08-26T01:34:32.941Z,5.13
2022-08-26T01:37:08.066Z,5.50
2022-08-26T01:39:42.594Z,5.40
2022-08-26T01:45:21.973Z,5.70
2022-08-26T01:47:56.832Z,5.97
2022-08-26T01:50:30.736Z,6.07
2022-08-26T01:53:06.635Z,5.82
2022-08-26T01:55:44.520Z,5.68
2022-08-26T01:58:21.721Z,7.43
2022-08-26T02:00:53.338Z,5.38
2022-08-26T02:03:24.399Z,4.57
2022-08-26T02:05:56.508Z,4.55
2022-08-26T02:08:40.011Z,6.45
2022-08-26T02:11:07.488Z,6.88
2022-08-26T02:13:42.744Z,6.25
2022-08-26T02:16:11.334Z,5.63
2022-08-26T02:18:42.265Z,5.25
2022-08-26T02:21:14.272Z,7.32
2022-08-26T02:23:43.098Z,5.55
2022-08-26T02:26:18.575Z,5.90
2022-08-26T02:28:51.908Z,6.75
2022-08-26T02:31:20.146Z,4.88
2022-08-26T02:33:48.279Z,4.90
2022-08-26T02:36:24.372Z,4.90
2022-08-26T02:38:56.389Z,5.75
2022-08-26T02:41:24.588Z,5.85
2022-08-26T02:43:51.941Z,5.43
2022-08-26T02:46:21.434Z,5.75
2022-08-26T02:49:07.713Z,6.90
2022-08-26T02:51:40.824Z,5.15
2022-08-26T02:54:10.785Z,7.80
2022-08-26T02:56:40.541Z,5.38
2022-08-26T02:59:10.284Z,7.43
2022-08-26T03:01:38.885Z,5.78
2022-08-26T03:04:12.914Z,4.90
2022-08-26T03:06:41.710Z,6.20
2022-08-26T03:09:14.011Z,5.68
2022-08-26T03:11:49.829Z,4.72
2022-08-26T03:14:17.615Z,5.63
2022-08-26T03:16:48.498Z,6.70
2022-08-26T03:19:19.798Z,7.25
2022-08-26T03:21:47.602Z,6.45
2022-08-26T03:24:18.186Z,6.25
2022-08-26T03:26:53.526Z,4.82
2022-08-26T03:29:43.409Z,6.53
2022-08-26T03:32:10.557Z,5.88
2022-08-26T03:34:38.650Z,5.10
2022-08-26T03:37:08.224Z,6.10
2022-08-26T03:39:45.099Z,5.43
2022-08-26T03:42:12.351Z,5.25
2022-08-26T03:44:42.470Z,5.63
2022-08-26T03:47:12.304Z,4.80
2022-08-26T03:49:41.220Z,5.00
2022-08-26T03:52:11.131Z,5.70
2022-08-26T03:54:40.795Z,4.68
2022-08-26T03:57:13.998Z,6.53
2022-08-26T03:59:44.217Z,6.03
2022-08-26T04:02:11.967Z,5.30
2022-08-26T04:04:42.035Z,5.32
2022-08-26T04:07:15.894Z,5.38
2022-08-26T04:09:48.825Z,4.72
2022-08-26T04:12:18.893Z,4.85
2022-08-26T04:14:54.634Z,4.55
2022-08-26T04:17:37.035Z,6.50
2022-08-26T04:20:09.888Z,4.68
2022-08-26T04:22:37.593Z,4.97
2022-08-26T04:25:09.873Z,4.65
2022-08-26T04:27:42.700Z,5.72
2022-08-26T04:30:11.674Z,5.32
2022-08-26T04:32:41.229Z,5.25
2022-08-26T04:35:09.611Z,4.07
2022-08-26T04:37:38.899Z,4.68
2022-08-26T04:40:18.832Z,4.22
2022-08-26T04:42:52.737Z,4.65
2022-08-26T04:45:22.809Z,5.07
2022-08-26T04:47:59.160Z,4.70
2022-08-26T04:50:31.567Z,6.32
2022-08-26T04:52:59.629Z,4.47
2022-08-26T04:55:38.605Z,4.93
2022-08-26T04:58:10.397Z,5.43
2022-08-26T05:00:46.389Z,4.25
2022-08-26T05:03:17.801Z,4.55
2022-08-26T05:05:50.513Z,5.30
2022-08-26T05:08:26.461Z,3.70
2022-08-26T05:10:56.507Z,6.43
2022-08-26T05:13:30.029Z,6.45
2022-08-26T05:16:15.261Z,6.35
2022-08-26T05:18:58.640Z,4.93
2022-08-26T05:21:38.060Z,4.35
2022-08-26T05:26:48.128Z,3.92
2022-08-26T05:29:30.136Z,6.43
2022-08-26T05:32:03.241Z,6.13
2022-08-26T05:34:44.310Z,5.07
2022-08-26T05:37:16.418Z,5.82
2022-08-26T05:39:51.079Z,5.18
2022-08-26T05:42:26.908Z,5.20
2022-08-26T05:44:57.112Z,4.43
2022-08-26T05:47:26.880Z,5.40
2022-08-26T05:50:08.712Z,4.28
2022-08-26T05:52:36.779Z,4.72
2022-08-26T05:55:10.231Z,4.50
2022-08-26T05:57:45.951Z,4.70
2022-08-26T06:00:24.529Z,3.55
2022-08-26T06:03:07.741Z,4.15
2022-08-26T06:05:49.034Z,5.93
2022-08-26T06:08:24.231Z,6.50
2022-08-26T06:11:10.776Z,5.53
2022-08-26T06:14:08.296Z,6.25
2022-08-26T06:16:40.996Z,6.28
2022-08-26T06:19:16.283Z,4.43
2022-08-26T06:21:47.776Z,4.10
2022-08-26T06:24:53.623Z,5.32
2022-08-26T06:27:24.306Z,5.13
2022-08-26T06:30:05.590Z,3.40
2022-08-26T06:32:33.870Z,5.72
2022-08-26T06:35:17.413Z,3.83
2022-08-26T06:37:46.646Z,5.30
2022-08-26T06:40:24.998Z,6.38
2022-08-26T06:42:56.331Z,4.53
2022-08-26T06:45:40.015Z,4.75
2022-08-26T06:48:16.628Z,3.92
2022-08-26T06:50:47.704Z,3.67
2022-08-26T06:53:20.995Z,3.40
2022-08-26T06:56:03.205Z,3.28
2022-08-26T06:58:41.532Z,4.25
2022-08-26T07:01:46.782Z,3.50
2022-08-26T07:04:29.809Z,3.15
2022-08-26T07:09:52.884Z,4.30
2022-08-26T07:12:33.634Z,3.25
2022-08-26T07:15:08.586Z,4.25
2022-08-26T07:17:37.407Z,2.78
2022-08-26T07:20:14.380Z,3.20
2022-08-26T07:22:47.521Z,2.80
2022-08-26T07:25:23.497Z,3.33
2022-08-26T07:28:08.573Z,3.10
2022-08-26T07:30:55.961Z,2.75
2022-08-26T07:33:26.548Z,2.80
2022-08-26T07:35:54.912Z,2.33
2022-08-26T07:38:32.535Z,2.75
2022-08-26T07:41:07.931Z,2.70
2022-08-26T07:43:39.356Z,2.45
2022-08-26T07:52:44.019Z,2.30
2022-08-26T07:55:32.597Z,1.98
2022-08-26T07:58:05.667Z,2.33
2022-08-26T08:00:45.930Z,2.08
2022-08-26T08:03:25.728Z,2.00
2022-08-26T08:06:15.888Z,1.85
2022-08-26T08:08:47.691Z,2.10
2022-08-26T08:11:33.325Z,1.73
2022-08-26T08:20:15.606Z,1.65
2022-08-26T08:22:48.233Z,1.60
2022-08-26T08:25:26.911Z,1.60
2022-08-26T08:28:09.412Z,2.25
2022-08-26T08:33:34.802Z,1.90
2022-08-26T08:36:28.064Z,2.05
2022-08-26T08:40:07.680Z,1.38
2022-08-26T08:43:39.939Z,2.40
2022-08-26T08:50:40.757Z,1.70
2022-08-26T08:53:28.535Z,2.05
2022-08-26T08:57:05.262Z,1.55
2022-08-26T09:00:12.796Z,1.67
2022-08-26T09:03:11.097Z,2.25
2022-08-26T09:06:27.647Z,1.80
2022-08-26T09:09:07.851Z,1.55
2022-08-26T09:11:49.824Z,1.98
2022-08-26T09:31:39.688Z,1.60
2022-08-26T09:34:47.536Z,1.60
2022-08-26T09:40:48.846Z,1.73
2022-08-26T09:43:51.899Z,1.38
2022-08-26T09:46:32.594Z,1.40
2022-08-26T09:53:52.310Z,1.50
2022-08-26T09:59:43.435Z,1.40
2022-08-26T10:06:44.511Z,1.90
2022-08-26T10:12:21.006Z,2.03
2022-08-26T10:15:10.625Z,1.40
2022-08-26T10:18:49.706Z,1.63
2022-08-26T10:22:12.563Z,1.63
2022-08-26T10:25:05.985Z,1.67
2022-08-26T10:27:55.095Z,1.60
2022-08-26T10:31:17.919Z,1.73
2022-08-26T10:34:00.185Z,1.38
2022-08-26T10:37:21.544Z,1.40
2022-08-26T10:40:24.009Z,1.55
2022-08-26T10:43:09.948Z,1.33
2022-08-26T10:46:17.391Z,1.85
2022-08-26T10:49:18.579Z,1.42
2022-08-26T10:52:29.501Z,2.00
2022-08-26T10:55:21.915Z,1.77
2022-08-26T10:58:58.135Z,1.67
2022-08-26T11:01:59.725Z,1.40
2022-08-26T11:05:30.413Z,1.73
2022-08-26T11:07:57.433Z,1.85
2022-08-26T11:10:28.472Z,1.65
2022-08-26T11:13:23.689Z,1.90
2022-08-26T11:16:02.549Z,1.92
2022-08-26T11:18:45.412Z,1.50
2022-08-26T11:22:06.356Z,1.80
2022-08-26T11:24:46.737Z,2.15
2022-08-26T11:27:26.347Z,1.85
2022-08-26T11:30:27.298Z,1.77
2022-08-26T11:32:58.945Z,2.20
2022-08-26T11:35:43.581Z,2.60
2022-08-26T11:38:58.301Z,1.88
2022-08-26T11:41:34.841Z,2.05
2022-08-26T11:47:01.605Z,2.22
2022-08-26T11:49:32.331Z,1.58
2022-08-26T11:52:20.770Z,2.55
2022-08-26T11:55:28.703Z,1.90
2022-08-26T11:58:08.888Z,2.13
2022-08-26T12:01:17.041Z,1.90
2022-08-26T12:03:52.674Z,1.70
2022-08-26T12:06:45.167Z,2.20
2022-08-26T12:09:31.254Z,2.42
2022-08-26T12:12:26.508Z,1.60
2022-08-26T12:15:25.907Z,2.70
2022-08-26T12:17:56.595Z,2.20
2022-08-26T12:20:54.651Z,1.63
2022-08-26T12:23:48.313Z,2.90
2022-08-26T12:26:32.515Z,2.15
2022-08-26T12:29:19.688Z,2.03
2022-08-26T12:37:59.426Z,2.45
2022-08-26T12:40:47.420Z,2.20
2022-08-26T12:43:43.245Z,2.20
2022-08-26T12:46:27.773Z,2.13
2022-08-26T12:49:01.471Z,2.10
2022-08-26T12:51:32.310Z,2.70
2022-08-26T12:54:00.174Z,2.17
2022-08-26T12:59:26.481Z,2.30
2022-08-26T13:01:57.155Z,2.40
2022-08-26T13:04:38.819Z,2.67
2022-08-26T13:07:26.835Z,2.38
2022-08-26T13:10:04.721Z,2.05
2022-08-26T13:12:37.967Z,1.83
2022-08-26T13:15:12.930Z,2.10
2022-08-26T13:17:40.575Z,1.92
2022-08-26T13:20:12.652Z,2.00
2022-08-26T13:23:21.425Z,2.08
2022-08-26T13:25:52.918Z,2.13
2022-08-26T13:28:20.617Z,1.85
2022-08-26T13:30:53.400Z,1.73
2022-08-26T13:33:21.910Z,2.10
2022-08-26T13:35:55.194Z,1.77
2022-08-26T13:38:34.637Z,2.10
2022-08-26T13:41:10.713Z,2.05
2022-08-26T13:43:43.948Z,1.95
2022-08-26T13:46:26.433Z,2.15
2022-08-26T13:48:57.326Z,1.98
2022-08-26T13:51:40.459Z,1.60
2022-08-26T13:54:24.447Z,1.50
2022-08-26T13:56:58.194Z,2.03
2022-08-26T14:02:07.554Z,2.13
2022-08-26T14:04:53.129Z,2.08
2022-08-26T14:07:21.097Z,2.10
2022-08-26T14:09:54.952Z,1.67
2022-08-26T14:12:22.969Z,2.53
2022-08-26T14:14:55.772Z,2.50
2022-08-26T14:17:27.061Z,2.40
2022-08-26T14:20:00.258Z,2.30
2022-08-26T14:22:29.006Z,2.45
2022-08-26T14:24:58.951Z,1.50
2022-08-26T14:27:28.977Z,2.00
2022-08-26T14:30:01.567Z,2.13
2022-08-26T14:32:30.112Z,1.58
2022-08-26T14:34:58.691Z,1.45
2022-08-26T14:37:38.340Z,1.42
2022-08-26T14:40:10.006Z,1.50
2022-08-26T14:42:39.972Z,1.73
2022-08-26T14:45:16.744Z,1.30
2022-08-26T14:47:56.007Z,1.77
2022-08-26T14:50:31.635Z,2.20
2022-08-26T14:53:19.446Z,1.67
2022-08-26T14:55:54.629Z,2.00
2022-08-26T14:58:22.990Z,2.20
2022-08-26T15:00:50.555Z,2.08
2022-08-26T15:05:56.819Z,2.38
2022-08-26T15:08:38.163Z,2.22
2022-08-26T15:11:05.640Z,2.67
2022-08-26T15:13:38.000Z,2.13
2022-08-26T15:16:06.002Z,2.28
2022-08-26T15:21:14.254Z,2.72
2022-08-26T15:23:43.325Z,2.15
2022-08-26T15:26:23.835Z,2.50
2022-08-26T15:28:52.513Z,3.25
2022-08-26T15:31:26.167Z,2.50
2022-08-26T15:33:54.354Z,2.40
2022-08-26T15:36:33.990Z,2.35
2022-08-26T15:39:10.261Z,2.40
2022-08-26T15:42:01.679Z,3.13
2022-08-26T15:44:32.027Z,2.80
2022-08-26T15:47:00.573Z,2.42
2022-08-26T15:49:32.687Z,2.30
2022-08-26T15:52:02.759Z,2.30
2022-08-26T15:54:50.854Z,2.55
2022-08-26T15:57:23.754Z,2.40
2022-08-26T15:59:54.268Z,2.15
2022-08-26T16:02:32.484Z,3.13
2022-08-26T16:05:00.679Z,3.17
2022-08-26T16:07:29.092Z,2.95
2022-08-26T16:09:59.128Z,2.70
2022-08-26T16:12:26.879Z,2.47
2022-08-26T16:14:57.930Z,2.42
2022-08-26T16:17:28.009Z,2.78
2022-08-26T16:19:59.965Z,2.78
2022-08-26T16:22:44.781Z,2.30
2022-08-26T16:25:20.508Z,2.85
2022-08-26T16:28:11.764Z,2.70
2022-08-26T16:33:29.480Z,2.97
2022-08-26T16:36:04.347Z,3.28
2022-08-26T16:38:34.195Z,2.10
2022-08-26T16:41:03.174Z,2.50
2022-08-26T16:43:38.166Z,2.45
2022-08-26T16:49:15.283Z,2.53
2022-08-26T16:51:45.236Z,2.83
2022-08-26T16:54:19.122Z,2.90
2022-08-26T16:56:46.750Z,3.03
2022-08-26T16:59:18.648Z,2.72
2022-08-26T17:01:46.210Z,2.25
2022-08-26T17:04:19.174Z,2.85
2022-08-26T17:06:57.900Z,3.63
2022-08-26T17:09:43.064Z,3.40
2022-08-26T17:12:23.095Z,2.72
2022-08-26T17:14:58.475Z,3.20
2022-08-26T17:17:26.597Z,2.97
2022-08-26T17:19:54.823Z,2.88
2022-08-26T17:22:32.731Z,3.10
2022-08-26T17:25:03.962Z,2.20
2022-08-26T17:27:31.930Z,2.75
2022-08-26T17:30:00.528Z,2.72
2022-08-26T17:32:44.644Z,3.60
2022-08-26T17:35:23.643Z,2.90
2022-08-26T17:40:38.496Z,2.47
2022-08-26T17:43:12.354Z,2.60
2022-08-26T17:45:46.816Z,3.03
2022-08-26T17:48:23.766Z,2.50
2022-08-26T17:51:01.140Z,2.70
2022-08-26T17:53:36.735Z,2.97
2022-08-26T17:56:07.304Z,2.65
2022-08-26T17:58:36.437Z,3.47
2022-08-26T18:01:06.059Z,3.33
2022-08-26T18:03:35.798Z,3.00
2022-08-26T18:06:10.225Z,3.53
2022-08-26T18:08:40.212Z,2.88
2022-08-26T18:11:17.327Z,2.58
2022-08-26T18:13:48.023Z,2.65
2022-08-26T18:16:21.250Z,2.35
2022-08-26T18:18:55.231Z,2.95
2022-08-26T18:21:27.351Z,2.80
2022-08-26T18:23:59.458Z,4.00
2022-08-26T18:26:31.803Z,2.85
2022-08-26T18:28:59.898Z,3.80
2022-08-26T18:31:28.478Z,2.85
2022-08-26T18:33:57.959Z,4.28
2022-08-26T18:36:30.745Z,4.15
2022-08-26T18:39:01.986Z,3.22
2022-08-26T18:41:33.841Z,4.30
2022-08-26T18:44:04.678Z,2.80
2022-08-26T18:46:34.755Z,3.33
2022-08-26T18:49:06.308Z,3.38
2022-08-26T18:51:35.788Z,3.08
2022-08-26T18:54:16.015Z,3.90
2022-08-26T18:56:46.154Z,3.03
2022-08-26T18:59:14.761Z,3.42
2022-08-26T19:01:45.845Z,3.50
2022-08-26T19:04:20.088Z,3.80
2022-08-26T19:06:57.427Z,3.20
2022-08-26T19:09:29.271Z,3.00
2022-08-26T19:12:00.518Z,3.63
2022-08-26T19:14:29.930Z,3.10
2022-08-26T19:17:00.976Z,3.63
2022-08-26T19:19:30.468Z,4.30
2022-08-26T19:22:02.137Z,3.78
2022-08-26T19:24:32.942Z,3.83
2022-08-26T19:27:03.774Z,3.78
2022-08-26T19:29:35.119Z,3.65
2022-08-26T19:32:12.805Z,3.40
2022-08-26T19:34:43.767Z,4.18
2022-08-26T19:37:12.074Z,4.03
2022-08-26T19:39:45.573Z,3.38
2022-08-26T19:42:19.432Z,2.90
2022-08-26T19:45:05.691Z,3.95
2022-08-26T19:47:35.069Z,3.42
2022-08-26T19:50:09.042Z,4.32
2022-08-26T19:52:39.264Z,4.30
2022-08-26T19:55:11.491Z,5.40
2022-08-26T19:57:44.859Z,4.40
2022-08-26T20:00:23.290Z,3.50
2022-08-26T20:02:52.571Z,4.60
2022-08-26T20:05:22.842Z,3.17
2022-08-26T20:07:59.374Z,3.45
2022-08-26T20:10:32.210Z,4.63
2022-08-26T20:13:02.998Z,4.80
2022-08-26T20:15:33.652Z,3.72
2022-08-26T20:18:02.172Z,4.30
2022-08-26T20:20:48.432Z,5.40
2022-08-26T20:23:34.951Z,4.53
2022-08-26T20:26:03.621Z,4.10
2022-08-26T20:28:37.200Z,3.92
2022-08-26T20:31:12.411Z,4.53
2022-08-26T20:33:46.230Z,5.22
2022-08-26T20:36:20.693Z,4.60
2022-08-26T20:38:54.824Z,4.30
2022-08-26T20:41:25.763Z,3.65
2022-08-26T20:44:06.172Z,4.22
2022-08-26T20:46:35.844Z,4.95
2022-08-26T20:49:07.800Z,5.00
2022-08-26T20:51:46.869Z,3.35
2022-08-26T20:54:14.862Z,4.18
2022-08-26T20:56:42.867Z,5.18
2022-08-26T20:59:11.924Z,4.90
2022-08-26T21:01:43.403Z,4.35
2022-08-26T21:04:17.402Z,4.00
2022-08-26T21:09:23.823Z,4.22
2022-08-26T21:11:55.513Z,4.32
2022-08-26T21:14:26.590Z,4.47
2022-08-26T21:19:22.831Z,4.72
2022-08-26T21:21:53.129Z,3.63
2022-08-26T21:24:27.679Z,3.97
2022-08-26T21:26:58.987Z,4.00
2022-08-26T21:29:27.048Z,5.30
2022-08-26T21:31:55.188Z,3.92
2022-08-26T21:34:33.895Z,3.78
2022-08-26T21:37:08.999Z,4.25
2022-08-26T21:39:54.834Z,4.30
2022-08-26T21:42:28.351Z,3.47
2022-08-26T21:44:59.124Z,3.15
2022-08-26T21:47:27.468Z,4.80
2022-08-26T21:50:04.271Z,3.58
2022-08-26T21:52:36.980Z,4.15
2022-08-26T21:55:09.068Z,3.38
2022-08-26T21:57:43.581Z,3.60
2022-08-26T22:00:15.759Z,4.10
2022-08-26T22:02:43.901Z,4.15
2022-08-26T22:05:12.245Z,3.88
2022-08-26T22:07:40.138Z,4.03
2022-08-26T22:10:10.995Z,4.40
2022-08-26T22:12:38.806Z,3.35
2022-08-26T22:15:14.890Z,3.20
2022-08-26T22:17:43.050Z,2.85
2022-08-26T22:20:16.605Z,4.20
2022-08-26T22:22:47.264Z,3.42
2022-08-26T22:25:14.638Z,4.57
2022-08-26T22:27:44.533Z,3.85
2022-08-26T22:30:21.625Z,3.28
2022-08-26T22:32:51.850Z,3.83
2022-08-26T22:35:28.897Z,4.22
2022-08-26T22:37:58.702Z,4.20
2022-08-26T22:40:29.214Z,4.40
2022-08-26T22:42:58.646Z,4.00
2022-08-26T22:45:30.459Z,3.63
2022-08-26T22:48:05.499Z,4.15
2022-08-26T22:50:36.668Z,5.03
2022-08-26T22:53:06.913Z,3.78
2022-08-26T22:55:39.423Z,4.15
2022-08-26T22:58:08.638Z,5.18
2022-08-26T23:00:39.204Z,4.68
2022-08-26T23:03:12.828Z,3.65
2022-08-26T23:05:44.528Z,4.72
2022-08-26T23:08:24.133Z,4.95
2022-08-26T23:10:56.615Z,3.65
2022-08-26T23:13:24.549Z,4.35
2022-08-26T23:16:10.452Z,4.00
2022-08-26T23:18:41.973Z,4.60
2022-08-26T23:21:13.563Z,3.72
2022-08-26T23:23:47.373Z,5.40
2022-08-26T23:28:47.170Z,2.95
2022-08-26T23:31:22.588Z,4.22
2022-08-26T23:34:08.857Z,5.18
2022-08-26T23:36:37.653Z,3.90
2022-08-26T23:39:06.855Z,4.78
2022-08-26T23:41:38.913Z,4.90
2022-08-26T23:44:09.996Z,4.28
2022-08-26T23:46:39.810Z,4.35
2022-08-26T23:49:07.542Z,3.90
2022-08-26T23:51:54.300Z,4.30
2022-08-26T23:54:21.720Z,3.47
2022-08-26T23:56:52.794Z,4.05
